Time;durP1;ratioP1;P1;durP2;ratioP2;P2;SDS_P1;SDS_P2;PMS_P1;PMS_P2;Temp;Humidity;BMP_temperature;BMP_pressure;BME280_temperature;BME280_humidity;BME280_pressure;Samples;Min_cycle;Max_cycle;Signal;HPM_P1;HPM_P2
2022/12/09 00:00:50;;;;;;;24.30;19.23;;;-2.50;99.90;;;;;;5074461;28;20178;-75
2022/12/09 00:03:16;;;;;;;26.17;20.00;;;-2.40;99.90;;;;;;5071634;28;20281;-74
2022/12/09 00:05:42;;;;;;;21.03;17.40;;;-2.40;99.90;;;;;;5078242;28;20186;-74
2022/12/09 00:08:07;;;;;;;22.10;18.10;;;-2.40;99.90;;;;;;5091722;28;20240;-74
2022/12/09 00:10:33;;;;;;;21.43;17.90;;;-2.40;99.90;;;;;;5095473;28;20185;-74
2022/12/09 00:12:59;;;;;;;21.20;17.00;;;-2.30;99.90;;;;;;5092711;28;20188;-75
2022/12/09 00:15:24;;;;;;;18.57;16.67;;;-2.30;99.90;;;;;;5093526;28;20264;-74
2022/12/09 00:17:50;;;;;;;22.47;15.80;;;-2.30;99.90;;;;;;5093980;28;20205;-74
2022/12/09 00:20:16;;;;;;;18.57;16.57;;;-2.20;99.90;;;;;;5083164;28;20663;-73
2022/12/09 00:22:42;;;;;;;23.57;21.27;;;-2.20;99.90;;;;;;5072019;28;20239;-73
2022/12/09 00:25:07;;;;;;;18.53;16.53;;;-2.20;99.90;;;;;;5071354;28;20192;-72
2022/12/09 00:27:33;;;;;;;22.00;15.47;;;-2.20;99.90;;;;;;5070837;28;20228;-74
2022/12/09 00:29:59;;;;;;;20.80;17.70;;;-2.30;99.90;;;;;;5082749;28;20208;-73
2022/12/09 00:32:25;;;;;;;20.53;17.30;;;-2.30;99.90;;;;;;5092561;28;20709;-73
2022/12/09 00:34:50;;;;;;;23.73;18.40;;;-2.30;99.90;;;;;;5091299;28;20180;-73
2022/12/09 00:37:16;;;;;;;21.07;18.87;;;-2.40;99.90;;;;;;5092092;28;20212;-73
2022/12/09 00:39:42;;;;;;;23.53;20.97;;;-2.40;99.90;;;;;;5084449;28;20216;-73
2022/12/09 00:42:08;;;;;;;24.37;21.73;;;-2.50;99.90;;;;;;5070840;28;20182;-73
2022/12/09 00:44:33;;;;;;;24.50;22.03;;;-2.50;99.90;;;;;;5070953;28;20563;-73
2022/12/09 00:46:59;;;;;;;21.73;19.73;;;-2.50;99.90;;;;;;5071485;28;20181;-73
2022/12/09 00:49:25;;;;;;;26.60;19.33;;;-2.50;99.90;;;;;;5076574;28;20205;-73
2022/12/09 00:51:52;;;;;;;24.90;22.40;;;-2.50;99.90;;;;;;5078159;28;20654;-73
2022/12/09 00:54:18;;;;;;;30.83;28.20;;;-2.50;99.90;;;;;;5084645;28;20688;-73
2022/12/09 00:56:44;;;;;;;35.23;32.57;;;-2.60;99.90;;;;;;5070222;28;20178;-74
2022/12/09 00:59:10;;;;;;;34.47;31.97;;;-2.60;99.90;;;;;;5073883;28;20277;-74
2022/12/09 01:01:35;;;;;;;35.87;33.27;;;-2.60;99.90;;;;;;5091891;28;20199;-73
2022/12/09 01:04:03;;;;;;;35.20;32.17;;;-2.60;99.90;;;;;;5091908;28;20177;-73
2022/12/09 01:06:29;;;;;;;32.90;30.47;;;-2.70;99.90;;;;;;5090675;28;20173;-73
2022/12/09 01:08:55;;;;;;;29.53;27.27;;;-2.70;99.90;;;;;;5090293;28;20313;-73
2022/12/09 01:11:24;;;;;;;30.63;28.13;;;-2.70;99.90;;;;;;5071382;28;20568;-74
2022/12/09 01:13:50;;;;;;;31.63;29.30;;;-2.80;99.90;;;;;;5071589;28;20645;-74
2022/12/09 01:16:23;;;;;;;27.00;24.53;;;-2.80;99.90;;;;;;5072049;28;20612;-75
2022/12/09 01:18:50;;;;;;;24.70;22.53;;;-2.80;99.90;;;;;;5069813;28;20708;-74
2022/12/09 01:21:16;;;;;;;28.43;26.27;;;-2.80;99.90;;;;;;5071164;28;20234;-74
2022/12/09 01:23:43;;;;;;;26.93;24.67;;;-2.90;99.90;;;;;;5076578;28;20831;-75
2022/12/09 01:26:09;;;;;;;25.93;23.53;;;-2.90;99.90;;;;;;5070145;28;20178;-74
2022/12/09 01:28:37;;;;;;;22.00;19.83;;;-2.90;99.90;;;;;;5070860;28;20216;-73
2022/12/09 01:31:10;;;;;;;20.00;18.10;;;-2.90;99.90;;;;;;5089024;28;20706;-74
2022/12/09 01:33:36;;;;;;;16.97;15.43;;;-2.90;99.90;;;;;;5091570;28;20177;-74
2022/12/09 01:36:07;;;;;;;18.53;16.63;;;-2.90;99.90;;;;;;5091213;28;20637;-74
2022/12/09 01:38:33;;;;;;;19.03;17.27;;;-3.00;99.90;;;;;;5090153;28;20269;-74
2022/12/09 01:40:59;;;;;;;18.90;16.93;;;-3.00;99.90;;;;;;5090868;28;20237;-74
2022/12/09 01:43:24;;;;;;;18.50;15.50;;;-3.00;99.90;;;;;;5090235;28;20636;-74
2022/12/09 01:45:50;;;;;;;16.27;14.67;;;-2.90;99.90;;;;;;5091415;28;20184;-74
2022/12/09 01:48:20;;;;;;;15.37;13.67;;;-3.00;99.90;;;;;;5089689;28;20216;-75
2022/12/09 01:50:48;;;;;;;15.10;13.27;;;-3.00;99.90;;;;;;5074670;28;20230;-74
2022/12/09 01:53:16;;;;;;;16.93;14.40;;;-3.00;99.90;;;;;;5071247;28;20174;-74
2022/12/09 01:55:42;;;;;;;15.67;13.73;;;-3.10;99.90;;;;;;5071264;28;20174;-74
2022/12/09 01:58:08;;;;;;;18.70;15.67;;;-3.20;99.90;;;;;;5070226;28;20279;-74
2022/12/09 02:00:34;;;;;;;16.50;13.00;;;-3.30;99.90;;;;;;5070652;28;20226;-73
2022/12/09 02:03:01;;;;;;;16.23;14.53;;;-3.30;99.90;;;;;;5070956;28;20192;-75
2022/12/09 02:05:29;;;;;;;18.83;15.37;;;-3.30;99.90;;;;;;5070795;28;20178;-74
2022/12/09 02:07:55;;;;;;;16.13;14.43;;;-3.30;99.90;;;;;;5069354;28;20300;-74
2022/12/09 02:10:21;;;;;;;15.43;13.83;;;-3.20;99.90;;;;;;5080511;28;20215;-75
2022/12/09 02:13:34;;;;;;;18.90;15.93;;;-3.20;99.90;;;;;;5089795;28;20624;-74
2022/12/09 02:16:04;;;;;;;18.13;16.27;;;-3.20;99.90;;;;;;5028151;28;20178;-74
2022/12/09 02:18:46;;;;;;;19.93;16.03;;;-3.20;99.90;;;;;;5027217;28;20795;-74
2022/12/09 02:21:19;;;;;;;20.63;15.10;;;-3.30;99.90;;;;;;5038349;28;20205;-75
2022/12/09 02:23:54;;;;;;;18.97;13.63;;;-3.20;99.90;;;;;;5052890;28;21264;-74
2022/12/09 02:26:40;;;;;;;16.20;14.60;;;-3.30;99.90;;;;;;5054806;28;20182;-74
2022/12/09 02:29:25;;;;;;;16.83;14.53;;;-3.40;99.90;;;;;;5061935;28;20932;-75
2022/12/09 02:31:55;;;;;;;19.53;14.20;;;-3.40;99.90;;;;;;5093467;28;20264;-74
2022/12/09 02:34:23;;;;;;;18.73;14.03;;;-3.40;99.90;;;;;;5094077;28;20722;-75
2022/12/09 02:36:58;;;;;;;15.80;14.23;;;-3.40;99.90;;;;;;5093979;28;20177;-74
2022/12/09 02:39:44;;;;;;;16.93;14.30;;;-3.40;99.90;;;;;;5088367;28;20181;-74
2022/12/09 02:42:15;;;;;;;14.87;12.37;;;-3.40;99.90;;;;;;5072920;28;20257;-74
2022/12/09 02:44:44;;;;;;;20.20;13.93;;;-3.40;99.90;;;;;;5072747;28;20178;-75
2022/12/09 02:47:14;;;;;;;16.70;15.10;;;-3.50;99.90;;;;;;5073385;28;20205;-74
2022/12/09 02:49:41;;;;;;;22.43;18.50;;;-3.50;99.90;;;;;;5080302;28;20172;-74
2022/12/09 02:52:09;;;;;;;21.17;14.83;;;-3.50;99.90;;;;;;5082859;28;20222;-75
2022/12/09 02:54:36;;;;;;;16.83;14.07;;;-3.40;99.90;;;;;;5072516;28;20178;-74
2022/12/09 02:57:09;;;;;;;19.53;17.53;;;-3.30;99.90;;;;;;5072604;28;20255;-74
2022/12/09 02:59:35;;;;;;;18.80;16.90;;;-3.20;99.90;;;;;;5079748;28;20173;-74
2022/12/09 03:02:10;;;;;;;15.73;12.73;;;-3.20;99.90;;;;;;5094110;28;20187;-74
2022/12/09 03:04:39;;;;;;;19.83;18.17;;;-3.20;99.90;;;;;;5093891;28;20177;-73
2022/12/09 03:07:28;;;;;;;25.97;23.60;;;-3.20;99.90;;;;;;5093379;28;20193;-73
2022/12/09 03:10:05;;;;;;;30.20;27.97;;;-3.20;99.90;;;;;;5046634;28;20269;-73
2022/12/09 03:12:33;;;;;;;30.27;27.83;;;-3.20;99.90;;;;;;5073488;28;20186;-74
2022/12/09 03:15:03;;;;;;;29.03;26.87;;;-3.20;99.90;;;;;;5073710;28;20776;-73
2022/12/09 03:17:33;;;;;;;30.00;27.50;;;-3.20;99.90;;;;;;5071606;28;20205;-74
2022/12/09 03:20:09;;;;;;;29.87;27.70;;;-3.30;99.90;;;;;;5081933;28;20596;-74
2022/12/09 03:22:38;;;;;;;29.43;26.83;;;-3.30;99.90;;;;;;5093568;28;20215;-73
2022/12/09 03:25:20;;;;;;;28.87;26.67;;;-3.30;99.90;;;;;;5093528;28;20271;-74
2022/12/09 03:27:57;;;;;;;21.80;20.10;;;-3.30;99.90;;;;;;5093000;28;20309;-74
2022/12/09 03:30:23;;;;;;;18.37;16.57;;;-3.30;99.90;;;;;;5081356;28;20181;-74
2022/12/09 03:32:50;;;;;;;16.40;14.73;;;-3.30;99.90;;;;;;5074425;28;20615;-73
2022/12/09 03:35:32;;;;;;;15.13;13.63;;;-3.30;99.90;;;;;;5076899;28;20230;-74
2022/12/09 03:38:01;;;;;;;15.60;14.10;;;-3.40;99.90;;;;;;5072564;28;20217;-74
2022/12/09 03:40:29;;;;;;;14.37;12.97;;;-3.40;99.90;;;;;;5073090;28;20220;-74
2022/12/09 03:42:59;;;;;;;16.73;13.43;;;-3.50;99.90;;;;;;5072003;28;20178;-73
2022/12/09 03:45:26;;;;;;;16.20;12.90;;;-3.40;99.90;;;;;;5072912;28;20661;-73
2022/12/09 03:47:52;;;;;;;16.57;13.30;;;-3.40;99.90;;;;;;5072390;28;20205;-73
2022/12/09 03:50:25;;;;;;;17.80;13.10;;;-3.40;99.90;;;;;;5081910;28;20592;-73
2022/12/09 03:53:00;;;;;;;13.60;12.30;;;-3.40;99.90;;;;;;5093067;28;20225;-73
2022/12/09 03:55:42;;;;;;;14.73;13.17;;;-3.40;99.90;;;;;;5091817;28;20184;-74
2022/12/09 03:58:11;;;;;;;13.93;12.53;;;-3.50;99.90;;;;;;5092397;28;20205;-74
2022/12/09 04:00:37;;;;;;;15.70;14.10;;;-3.60;99.90;;;;;;5082321;28;20174;-73
2022/12/09 04:03:04;;;;;;;14.67;13.13;;;-3.70;99.90;;;;;;5071327;28;20654;-74
2022/12/09 04:05:30;;;;;;;16.53;13.33;;;-3.70;99.90;;;;;;5072236;28;20654;-73
2022/12/09 04:07:56;;;;;;;16.37;13.17;;;-3.60;99.90;;;;;;5078749;28;20213;-73
2022/12/09 04:10:22;;;;;;;14.40;12.90;;;-3.60;99.90;;;;;;5085143;28;20188;-74
2022/12/09 04:12:47;;;;;;;14.77;13.17;;;-3.70;99.90;;;;;;5072260;28;20264;-74
2022/12/09 04:15:13;;;;;;;14.83;13.40;;;-3.70;99.90;;;;;;5073060;28;20523;-74
2022/12/09 04:17:39;;;;;;;16.23;13.70;;;-3.70;99.90;;;;;;5083314;28;20689;-74
2022/12/09 04:20:05;;;;;;;15.87;14.27;;;-3.70;99.90;;;;;;5072541;28;20289;-74
2022/12/09 04:22:31;;;;;;;20.20;14.43;;;-3.70;99.90;;;;;;5071901;28;20202;-74
2022/12/09 04:24:57;;;;;;;17.20;13.40;;;-3.70;99.90;;;;;;5071150;28;20743;-74
2022/12/09 04:27:22;;;;;;;14.53;12.70;;;-3.70;99.90;;;;;;5074435;28;20251;-74
2022/12/09 04:29:48;;;;;;;15.30;13.80;;;-3.70;99.90;;;;;;5071009;28;20170;-73
2022/12/09 04:32:14;;;;;;;17.90;14.37;;;-3.70;99.90;;;;;;5074871;28;20178;-73
2022/12/09 04:34:41;;;;;;;16.17;13.30;;;-3.70;99.90;;;;;;5070490;28;20244;-74
2022/12/09 04:37:06;;;;;;;14.73;13.20;;;-3.70;99.90;;;;;;5070182;28;20213;-72
2022/12/09 04:39:32;;;;;;;17.00;13.20;;;-3.60;99.90;;;;;;5071258;28;20184;-72
2022/12/09 04:41:58;;;;;;;15.33;13.77;;;-3.50;99.90;;;;;;5071283;28;20182;-72
2022/12/09 04:44:24;;;;;;;14.83;13.33;;;-3.50;99.90;;;;;;5070322;28;20712;-72
2022/12/09 04:46:50;;;;;;;16.40;14.70;;;-3.50;99.90;;;;;;5070287;28;20177;-73
2022/12/09 04:49:15;;;;;;;15.00;13.50;;;-3.50;99.90;;;;;;5067599;28;20584;-71
2022/12/09 04:51:41;;;;;;;13.80;12.37;;;-3.50;99.90;;;;;;5054386;28;20209;-73
2022/12/09 04:54:13;;;;;;;14.87;13.07;;;-3.60;99.90;;;;;;5070296;28;20284;-73
2022/12/09 04:56:39;;;;;;;15.40;13.77;;;-3.60;99.90;;;;;;5071120;28;20683;-72
2022/12/09 04:59:05;;;;;;;14.57;13.07;;;-3.60;99.90;;;;;;5074862;28;20240;-73
2022/12/09 05:01:31;;;;;;;14.37;12.87;;;-3.60;99.90;;;;;;5072871;28;20194;-73
2022/12/09 05:03:57;;;;;;;23.40;14.37;;;-3.60;99.90;;;;;;5070335;28;20182;-73
2022/12/09 05:06:24;;;;;;;14.10;12.70;;;-3.60;99.90;;;;;;5070046;28;20181;-73
2022/12/09 05:08:49;;;;;;;15.27;13.03;;;-3.60;99.90;;;;;;5070900;28;20721;-73
2022/12/09 05:11:17;;;;;;;18.70;13.83;;;-3.60;99.90;;;;;;5069998;28;20272;-72
2022/12/09 05:13:43;;;;;;;19.97;13.90;;;-3.60;99.90;;;;;;5071013;28;20181;-73
2022/12/09 05:16:12;;;;;;;19.07;14.00;;;-3.60;99.90;;;;;;5069943;28;20189;-73
2022/12/09 05:18:38;;;;;;;15.07;13.27;;;-3.50;99.90;;;;;;5069528;28;20270;-72
2022/12/09 05:21:05;;;;;;;14.43;13.10;;;-3.50;99.90;;;;;;5069702;28;20646;-72
2022/12/09 05:23:31;;;;;;;18.70;17.00;;;-3.40;99.90;;;;;;5071151;28;20249;-73
2022/12/09 05:25:57;;;;;;;19.63;15.57;;;-3.40;99.90;;;;;;5070895;28;20178;-73
2022/12/09 05:28:22;;;;;;;17.70;15.90;;;-3.30;99.90;;;;;;5068976;28;20624;-73
2022/12/09 05:30:48;;;;;;;17.40;15.67;;;-3.20;99.90;;;;;;5069754;28;20265;-73
2022/12/09 05:33:14;;;;;;;33.53;31.00;;;-3.20;99.90;;;;;;5069765;28;20182;-73
2022/12/09 05:35:43;;;;;;;26.27;24.03;;;-3.20;99.90;;;;;;5069162;28;20192;-73
2022/12/09 05:38:09;;;;;;;22.30;20.23;;;-3.10;99.90;;;;;;5070478;28;20240;-73
2022/12/09 05:40:35;;;;;;;24.17;21.87;;;-3.10;99.90;;;;;;5070775;28;20181;-73
2022/12/09 05:43:01;;;;;;;29.40;26.90;;;-3.00;99.90;;;;;;5069242;28;20341;-73
2022/12/09 05:45:27;;;;;;;33.00;30.43;;;-3.00;99.90;;;;;;5070863;28;20208;-73
2022/12/09 05:47:52;;;;;;;24.27;22.27;;;-3.10;99.90;;;;;;5070804;28;20262;-72
2022/12/09 05:50:18;;;;;;;19.13;17.50;;;-3.10;99.90;;;;;;5070840;28;20547;-73
2022/12/09 05:52:44;;;;;;;17.80;16.03;;;-3.20;99.90;;;;;;5071023;28;20174;-69
2022/12/09 05:55:10;;;;;;;18.97;17.13;;;-3.20;99.90;;;;;;5070944;28;20174;-71
2022/12/09 05:57:36;;;;;;;21.47;19.77;;;-3.20;99.90;;;;;;5068730;28;20237;-71
2022/12/09 06:00:04;;;;;;;26.03;23.63;;;-3.20;99.90;;;;;;5070787;28;20554;-68
2022/12/09 06:02:30;;;;;;;41.80;38.37;;;-3.20;99.90;;;;;;5069188;28;20557;-69
2022/12/09 06:04:56;;;;;;;34.67;31.90;;;-3.10;99.90;;;;;;5069307;28;20269;-68
2022/12/09 06:07:22;;;;;;;34.83;31.93;;;-3.10;99.90;;;;;;5070325;28;20761;-68
2022/12/09 06:09:47;;;;;;;34.27;31.37;;;-3.00;99.90;;;;;;5069499;28;20181;-68
2022/12/09 06:12:14;;;;;;;31.23;28.53;;;-3.00;99.90;;;;;;5070289;28;20814;-68
2022/12/09 06:14:40;;;;;;;33.47;30.53;;;-3.00;99.90;;;;;;5072448;28;20618;-68
2022/12/09 06:17:05;;;;;;;35.30;32.50;;;-2.90;99.90;;;;;;5070137;28;20285;-69
2022/12/09 06:19:31;;;;;;;31.03;28.60;;;-2.90;99.90;;;;;;5068740;28;20181;-69
2022/12/09 06:21:57;;;;;;;39.53;36.63;;;-2.90;99.90;;;;;;5068984;28;20184;-69
2022/12/09 06:24:22;;;;;;;34.03;31.37;;;-2.90;99.90;;;;;;5071168;28;20613;-69
2022/12/09 06:26:52;;;;;;;30.73;28.33;;;-2.90;99.90;;;;;;5068396;28;20177;-70
2022/12/09 06:29:18;;;;;;;29.27;26.83;;;-2.80;99.90;;;;;;5070187;28;20214;-69
2022/12/09 06:31:43;;;;;;;21.23;19.33;;;-2.80;99.90;;;;;;5070313;28;20590;-69
2022/12/09 06:34:09;;;;;;;18.13;16.37;;;-2.80;99.90;;;;;;5069910;28;20178;-69
2022/12/09 06:36:35;;;;;;;18.77;16.80;;;-2.70;99.90;;;;;;5070038;28;20239;-62
2022/12/09 06:39:03;;;;;;;21.27;19.13;;;-2.70;99.90;;;;;;5069626;28;20241;-64
2022/12/09 06:41:29;;;;;;;23.87;21.83;;;-2.70;99.90;;;;;;5069768;28;20749;-64
2022/12/09 06:43:58;;;;;;;23.47;16.83;;;-2.60;99.90;;;;;;5070373;28;20182;-69
2022/12/09 06:46:26;;;;;;;21.20;18.83;;;-2.60;99.90;;;;;;5050133;28;20185;-69
2022/12/09 06:48:53;;;;;;;21.53;19.27;;;-2.50;99.90;;;;;;5049410;28;20222;-68
2022/12/09 06:51:20;;;;;;;23.53;21.33;;;-2.50;99.90;;;;;;5049919;28;20206;-69
2022/12/09 06:53:46;;;;;;;19.57;17.47;;;-2.50;99.90;;;;;;5049879;28;20182;-68
2022/12/09 06:56:13;;;;;;;18.27;14.83;;;-2.50;99.90;;;;;;5049847;28;20198;-68
2022/12/09 06:58:41;;;;;;;17.37;13.83;;;-2.40;99.90;;;;;;5049607;28;20260;-68
2022/12/09 07:01:26;;;;;;;23.00;15.43;;;-2.40;99.90;;;;;;5050223;28;20212;-69
2022/12/09 07:03:54;;;;;;;20.97;16.27;;;-2.40;99.90;;;;;;5064861;28;20604;-68
2022/12/09 07:06:36;;;;;;;24.27;17.97;;;-2.30;99.90;;;;;;5049938;28;20178;-68
2022/12/09 07:09:10;;;;;;;21.70;17.27;;;-2.40;99.90;;;;;;5052178;28;20269;-68
2022/12/09 07:11:35;;;;;;;18.47;15.17;;;-2.30;99.90;;;;;;5053320;28;20236;-68
2022/12/09 07:14:01;;;;;;;20.30;17.57;;;-2.30;99.90;;;;;;5053482;28;20178;-67
2022/12/09 07:16:28;;;;;;;21.30;16.63;;;-2.20;99.90;;;;;;5052321;28;20276;-68
2022/12/09 07:18:54;;;;;;;23.57;17.93;;;-2.20;99.90;;;;;;5052619;28;20240;-68
2022/12/09 07:21:20;;;;;;;18.20;16.33;;;-2.10;99.90;;;;;;5054005;28;20671;-68
2022/12/09 07:23:46;;;;;;;22.93;17.03;;;-2.00;99.90;;;;;;5053924;28;20194;-69
2022/12/09 07:26:13;;;;;;;19.20;14.90;;;-1.90;99.90;;;;;;5053203;28;20633;-68
2022/12/09 07:28:41;;;;;;;25.50;15.03;;;-1.90;99.90;;;;;;5051488;28;20221;-68
2022/12/09 07:31:25;;;;;;;24.27;14.40;;;-1.70;99.90;;;;;;5053090;28;20178;-68
2022/12/09 07:33:53;;;;;;;18.10;13.77;;;-1.60;99.90;;;;;;5052771;28;20182;-69
2022/12/09 07:36:20;;;;;;;18.97;15.13;;;-1.60;99.90;;;;;;5053041;28;20213;-67
2022/12/09 07:38:46;;;;;;;21.00;13.60;;;-1.60;99.90;;;;;;5052514;28;20228;-69
2022/12/09 07:41:19;;;;;;;20.53;14.63;;;-1.50;99.90;;;;;;5052750;28;20182;-67
2022/12/09 07:43:45;;;;;;;22.53;16.53;;;-1.40;99.90;;;;;;5053319;28;20186;-70
2022/12/09 07:46:12;;;;;;;36.90;24.03;;;-1.30;99.90;;;;;;5070674;28;20178;-69
2022/12/09 07:48:38;;;;;;;20.80;16.33;;;-1.30;99.90;;;;;;5073424;28;20730;-68
2022/12/09 07:51:05;;;;;;;42.97;26.23;;;-1.20;99.90;;;;;;5072742;28;20268;-68
2022/12/09 07:53:33;;;;;;;34.60;22.00;;;-1.10;99.90;;;;;;5072075;28;20201;-69
2022/12/09 07:56:10;;;;;;;32.80;25.77;;;-1.00;99.90;;;;;;5071535;28;20201;-68
2022/12/09 07:58:37;;;;;;;32.80;26.47;;;-1.00;99.90;;;;;;5072394;28;20282;-67
2022/12/09 08:01:12;;;;;;;27.00;24.07;;;-0.90;99.90;;;;;;5071632;28;20204;-69
2022/12/09 08:03:39;;;;;;;29.73;25.23;;;-0.90;99.90;;;;;;5071700;28;20192;-69
2022/12/09 08:06:05;;;;;;;26.33;23.70;;;-0.80;99.90;;;;;;5071603;28;20188;-69
2022/12/09 08:08:31;;;;;;;27.30;24.10;;;-0.80;99.90;;;;;;5072960;28;20267;-68
2022/12/09 08:11:09;;;;;;;25.90;23.33;;;-0.80;99.90;;;;;;5072982;28;20178;-67
2022/12/09 08:13:35;;;;;;;23.07;20.90;;;-0.80;99.90;;;;;;5071721;28;20185;-68
2022/12/09 08:16:06;;;;;;;22.17;17.20;;;-0.80;99.90;;;;;;5071897;28;20218;-68
2022/12/09 08:18:33;;;;;;;23.17;17.20;;;-0.70;99.90;;;;;;5066280;28;20216;-68
2022/12/09 08:21:02;;;;;;;26.20;17.47;;;-0.60;99.90;;;;;;5071288;28;20276;-69
2022/12/09 08:23:28;;;;;;;21.60;16.20;;;-0.40;99.90;;;;;;5071191;28;20300;-68
2022/12/09 08:25:55;;;;;;;21.30;16.03;;;-0.30;99.90;;;;;;5072134;28;20633;-70
2022/12/09 08:28:24;;;;;;;23.37;16.00;;;-0.20;99.90;;;;;;5072065;28;20315;-69
2022/12/09 08:30:50;;;;;;;20.63;16.97;;;-0.10;99.90;;;;;;5072667;28;20205;-71
2022/12/09 08:33:16;;;;;;;22.43;18.73;;;0.00;99.90;;;;;;5072247;28;20239;-68
2022/12/09 08:35:43;;;;;;;21.17;17.27;;;0.20;99.90;;;;;;5071061;28;20196;-71
2022/12/09 08:38:09;;;;;;;22.47;15.57;;;0.20;99.90;;;;;;5070250;28;20693;-69
2022/12/09 08:40:35;;;;;;;18.50;15.00;;;0.30;99.90;;;;;;5072198;28;20584;-69
2022/12/09 08:43:08;;;;;;;19.67;15.70;;;0.40;99.90;;;;;;5071987;28;20273;-69
2022/12/09 08:45:39;;;;;;;19.50;15.20;;;0.50;99.90;;;;;;5070554;28;20665;-68
2022/12/09 08:48:07;;;;;;;21.13;17.00;;;0.50;99.90;;;;;;5070836;28;20673;-68
2022/12/09 08:50:34;;;;;;;22.43;17.40;;;0.60;99.90;;;;;;5070323;28;20172;-69
2022/12/09 08:53:00;;;;;;;20.70;15.47;;;0.60;99.90;;;;;;5071714;28;20181;-68
2022/12/09 08:55:26;;;;;;;21.27;16.13;;;0.70;99.90;;;;;;5070246;28;20183;-68
2022/12/09 08:57:52;;;;;;;26.87;17.47;;;0.80;99.90;;;;;;5057576;28;20213;-69
2022/12/09 09:00:19;;;;;;;26.40;17.20;;;0.80;99.90;;;;;;5070380;28;20202;-69
2022/12/09 09:02:45;;;;;;;20.80;15.70;;;0.80;99.90;;;;;;5069942;28;20740;-69
2022/12/09 09:05:11;;;;;;;19.57;16.13;;;0.90;99.90;;;;;;5071129;28;20201;-69
2022/12/09 09:07:38;;;;;;;24.47;18.53;;;0.90;99.90;;;;;;5070857;28;20768;-69
2022/12/09 09:10:04;;;;;;;23.53;18.30;;;0.90;99.90;;;;;;5070274;28;20173;-69
2022/12/09 09:12:30;;;;;;;33.07;22.60;;;0.90;99.90;;;;;;5071106;28;20187;-69
2022/12/09 09:14:56;;;;;;;21.10;16.10;;;1.00;99.90;;;;;;5074580;28;20180;-69
2022/12/09 09:17:22;;;;;;;19.60;16.53;;;1.00;99.90;;;;;;5071833;28;20284;-68
2022/12/09 09:19:48;;;;;;;28.53;18.33;;;1.00;99.90;;;;;;5070908;28;20667;-68
2022/12/09 09:22:14;;;;;;;22.67;17.70;;;1.00;99.90;;;;;;5071158;28;20669;-68
2022/12/09 09:24:40;;;;;;;23.20;17.00;;;1.10;99.90;;;;;;5070236;28;20174;-69
2022/12/09 09:27:06;;;;;;;23.30;17.60;;;1.20;99.90;;;;;;5070229;28;20227;-69
2022/12/09 09:29:32;;;;;;;23.47;17.80;;;1.30;99.90;;;;;;5070985;28;20715;-68
2022/12/09 09:31:58;;;;;;;25.33;19.23;;;1.30;99.90;;;;;;5070158;28;20181;-68
2022/12/09 09:34:26;;;;;;;24.07;19.37;;;1.40;99.90;;;;;;5070831;28;20607;-68
2022/12/09 09:36:52;;;;;;;27.73;20.13;;;1.40;99.90;;;;;;5069500;28;20199;-68
2022/12/09 09:39:19;;;;;;;26.37;18.60;;;1.40;99.90;;;;;;5071112;28;20204;-67
2022/12/09 09:42:01;;;;;;;26.97;19.67;;;1.40;99.90;;;;;;5071213;28;20186;-69
2022/12/09 09:44:38;;;;;;;24.87;19.20;;;1.50;99.90;;;;;;5074335;28;20184;-69
2022/12/09 09:47:21;;;;;;;21.97;18.80;;;1.50;99.90;;;;;;5075655;28;20254;-69
2022/12/09 09:50:05;;;;;;;26.17;19.53;;;1.60;99.90;;;;;;5072084;28;20249;-68
2022/12/09 09:52:36;;;;;;;27.30;19.70;;;1.70;99.90;;;;;;5071359;28;20188;-68
2022/12/09 09:55:16;;;;;;;28.03;19.13;;;1.70;99.90;;;;;;5070890;28;20196;-70
2022/12/09 09:58:02;;;;;;;25.43;18.87;;;1.80;99.90;;;;;;5070889;28;20214;-68
2022/12/09 10:00:37;;;;;;;24.63;17.30;;;1.80;99.90;;;;;;5070290;28;20532;-68
2022/12/09 10:03:10;;;;;;;24.00;17.67;;;1.70;99.90;;;;;;5071158;28;20180;-69
2022/12/09 10:05:42;;;;;;;23.50;17.67;;;1.70;99.90;;;;;;5069734;28;20192;-69
2022/12/09 10:08:32;;;;;;;23.77;17.43;;;1.70;99.90;;;;;;5070532;28;20226;-68
2022/12/09 10:11:06;;;;;;;27.27;17.33;;;1.70;99.90;;;;;;5071032;28;20176;-68
2022/12/09 10:13:43;;;;;;;27.30;18.73;;;1.70;99.90;;;;;;5069884;28;20189;-69
2022/12/09 10:16:32;;;;;;;26.83;18.43;;;1.70;99.90;;;;;;5071238;28;20200;-69
2022/12/09 10:19:04;;;;;;;23.77;17.13;;;1.70;99.90;;;;;;5071269;28;20291;-69
2022/12/09 10:21:31;;;;;;;27.77;17.73;;;1.80;99.90;;;;;;5071743;28;20622;-69
2022/12/09 10:24:15;;;;;;;24.03;17.43;;;1.90;99.90;;;;;;5069853;28;20238;-70
2022/12/09 10:26:42;;;;;;;21.03;17.70;;;2.00;99.90;;;;;;5070663;28;20223;-70
2022/12/09 10:29:22;;;;;;;27.07;17.50;;;1.90;99.90;;;;;;5070441;28;20274;-70
2022/12/09 10:31:48;;;;;;;27.37;16.67;;;1.90;99.90;;;;;;5070637;28;20194;-69
2022/12/09 10:34:14;;;;;;;26.57;18.00;;;1.80;99.90;;;;;;5070697;28;20176;-69
2022/12/09 10:36:43;;;;;;;19.80;15.73;;;1.70;99.90;;;;;;5070374;28;20183;-69
2022/12/09 10:39:19;;;;;;;26.10;17.87;;;1.80;99.90;;;;;;5070617;28;20249;-69
2022/12/09 10:44:35;;;;;;;22.07;18.27;;;1.90;99.90;;;;;;5074255;28;20177;-69
2022/12/09 10:47:04;;;;;;;24.83;17.73;;;2.10;99.90;;;;;;5072694;28;20604;-69
2022/12/09 10:49:32;;;;;;;23.73;17.37;;;2.10;99.90;;;;;;5073011;28;20218;-69
2022/12/09 10:51:58;;;;;;;25.13;17.73;;;2.30;99.90;;;;;;5074532;28;20179;-70
2022/12/09 10:54:35;;;;;;;25.07;20.60;;;2.40;99.90;;;;;;5074341;28;20185;-69
2022/12/09 10:57:13;;;;;;;28.07;23.63;;;2.60;99.90;;;;;;5072851;28;20183;-68
2022/12/09 10:59:41;;;;;;;33.60;24.53;;;2.80;99.90;;;;;;5073001;28;20717;-69
2022/12/09 11:02:07;;;;;;;28.27;22.53;;;3.00;99.90;;;;;;5074033;28;20351;-69
2022/12/09 11:04:39;;;;;;;28.93;21.50;;;3.20;99.90;;;;;;5061245;28;20272;-69
2022/12/09 11:07:11;;;;;;;29.07;19.10;;;3.20;99.90;;;;;;5070757;28;20212;-69
2022/12/09 11:09:40;;;;;;;27.87;19.87;;;3.10;99.90;;;;;;5072315;28;20709;-69
2022/12/09 11:12:16;;;;;;;23.70;19.00;;;3.00;99.90;;;;;;5073527;28;20178;-69
2022/12/09 11:15:20;;;;;;;24.03;18.50;;;2.90;99.90;;;;;;5074088;28;20191;-69
2022/12/09 11:18:06;;;;;;;27.30;19.13;;;2.90;99.90;;;;;;5073192;28;20242;-69
2022/12/09 11:20:34;;;;;;;30.20;18.83;;;3.00;99.90;;;;;;5073635;28;20280;-69
2022/12/09 11:23:02;;;;;;;24.30;17.90;;;3.10;99.90;;;;;;5073514;28;20257;-69
2022/12/09 11:25:32;;;;;;;28.50;17.93;;;3.30;99.90;;;;;;5073921;28;20189;-68
2022/12/09 11:28:21;;;;;;;23.73;18.17;;;3.40;99.90;;;;;;5074701;28;20213;-69
2022/12/09 11:31:11;;;;;;;23.83;17.83;;;3.40;99.90;;;;;;5072539;28;20184;-68
2022/12/09 11:33:46;;;;;;;24.77;17.67;;;3.60;99.90;;;;;;5073636;28;20213;-68
2022/12/09 11:36:23;;;;;;;24.47;17.00;;;3.50;99.90;;;;;;5073679;28;20180;-69
2022/12/09 11:38:52;;;;;;;25.77;18.17;;;3.60;99.90;;;;;;5072938;28;20902;-69
2022/12/09 11:44:44;;;;;;;29.70;22.20;;;3.50;99.90;;;;;;5073335;28;20192;-69
2022/12/09 11:47:19;;;;;;;29.37;21.10;;;3.50;99.90;;;;;;5067973;28;20213;-69
2022/12/09 11:49:55;;;;;;;27.73;18.83;;;3.50;99.90;;;;;;5073029;28;20184;-68
2022/12/09 11:52:25;;;;;;;27.80;18.90;;;3.60;99.90;;;;;;5073334;28;20268;-68
2022/12/09 11:55:14;;;;;;;23.53;19.03;;;3.50;99.90;;;;;;5072305;28;20185;-69
2022/12/09 11:57:58;;;;;;;22.83;17.23;;;3.50;99.90;;;;;;5071448;28;20208;-68
2022/12/09 12:00:26;;;;;;;25.07;18.97;;;3.60;99.90;;;;;;5071810;28;20645;-68
2022/12/09 12:03:10;;;;;;;29.50;19.80;;;3.60;99.90;;;;;;5072656;28;20185;-69
2022/12/09 12:05:40;;;;;;;26.87;19.17;;;3.60;99.90;;;;;;5073767;28;20189;-68
2022/12/09 12:08:33;;;;;;;24.57;19.57;;;3.50;99.90;;;;;;5072551;28;20221;-68
2022/12/09 12:11:03;;;;;;;24.73;18.90;;;3.50;99.90;;;;;;5073064;28;20173;-69
2022/12/09 12:13:46;;;;;;;23.40;18.33;;;3.50;99.90;;;;;;5073091;28;20189;-69
2022/12/09 12:16:19;;;;;;;24.63;19.20;;;3.50;99.90;;;;;;5057691;28;20208;-69
2022/12/09 12:18:57;;;;;;;24.27;19.10;;;3.40;99.90;;;;;;5062804;28;20212;-69
2022/12/09 12:21:52;;;;;;;24.60;18.53;;;3.50;99.90;;;;;;5072033;28;20196;-69
2022/12/09 12:24:55;;;;;;;28.03;18.20;;;3.40;99.90;;;;;;5071443;28;20189;-69
2022/12/09 12:27:26;;;;;;;25.20;17.23;;;3.40;99.90;;;;;;5071726;28;20219;-68
2022/12/09 12:30:18;;;;;;;25.20;17.77;;;3.30;99.90;;;;;;5073965;28;20280;-68
2022/12/09 12:33:19;;;;;;;24.90;18.53;;;3.40;99.90;;;;;;5075780;28;20185;-68
2022/12/09 12:35:52;;;;;;;27.03;18.67;;;3.50;99.90;;;;;;5072227;28;20185;-68
2022/12/09 12:38:29;;;;;;;29.53;19.23;;;3.50;99.90;;;;;;5090759;22;20256;-70
2022/12/09 12:41:10;;;;;;;24.37;17.57;;;3.50;99.90;;;;;;5072366;28;20181;-70
2022/12/09 12:46:46;;;;;;;25.20;18.07;;;3.40;99.90;;;;;;5072047;28;20790;-70
2022/12/09 12:49:46;;;;;;;27.17;17.67;;;3.40;99.90;;;;;;5071945;28;20220;-70
2022/12/09 12:52:32;;;;;;;24.47;18.23;;;3.40;99.90;;;;;;5072060;28;20177;-70
2022/12/09 12:55:16;;;;;;;27.27;18.83;;;3.50;99.90;;;;;;5071987;28;20188;-70